Time;durP1;ratioP1;P1;durP2;ratioP2;P2;SDS_P1;SDS_P2;PMS_P1;PMS_P2;Temp;Humidity;BMP_temperature;BMP_pressure;BME280_temperature;BME280_humidity;BME280_pressure;Samples;Min_cycle;Max_cycle;Signal;HPM_P1;HPM_P2
2023/09/02 00:00:13;;;;;;;1.40;1.30;;;;;;;16.71;100.00;100362.34;4965770;28;20219;-77
2023/09/02 00:02:38;;;;;;;2.23;1.43;;;;;;;16.70;100.00;100360.66;4961950;28;20209;-78
2023/09/02 00:05:04;;;;;;;1.47;1.23;;;;;;;16.68;100.00;100358.09;4966701;28;20189;-77
2023/09/02 00:07:30;;;;;;;2.30;1.37;;;;;;;16.69;100.00;100358.94;4971755;28;20204;-77
2023/09/02 00:09:55;;;;;;;1.27;1.17;;;;;;;16.68;100.00;100362.44;4968898;28;20217;-76
2023/09/02 00:12:20;;;;;;;2.00;1.23;;;;;;;16.65;100.00;100360.81;4983573;28;20201;-76
2023/09/02 00:14:45;;;;;;;1.90;1.30;;;;;;;16.64;100.00;100363.47;4965989;28;20255;-76
2023/09/02 00:17:11;;;;;;;2.50;1.40;;;;;;;16.62;100.00;100373.97;4966434;28;20940;-76
2023/09/02 00:19:37;;;;;;;1.43;1.20;;;;;;;16.57;100.00;100365.41;4962936;28;20213;-76
2023/09/02 00:22:03;;;;;;;1.53;1.20;;;;;;;16.55;100.00;100369.88;4962023;28;20226;-76
2023/09/02 00:24:28;;;;;;;2.50;1.20;;;;;;;16.54;100.00;100370.75;4967531;28;20663;-76
2023/09/02 00:26:53;;;;;;;1.80;1.07;;;;;;;16.52;100.00;100376.03;4970615;28;20839;-76
2023/09/02 00:29:18;;;;;;;2.10;1.17;;;;;;;16.52;100.00;100372.56;4968160;28;20240;-76
2023/09/02 00:31:44;;;;;;;2.07;1.10;;;;;;;16.51;100.00;100370.84;4973104;28;20584;-76
2023/09/02 00:34:09;;;;;;;1.40;1.20;;;;;;;16.49;100.00;100370.03;4967996;28;20200;-75
2023/09/02 00:36:34;;;;;;;1.80;1.20;;;;;;;16.49;100.00;100367.44;4969209;28;20191;-76
2023/09/02 00:39:00;;;;;;;1.27;1.17;;;;;;;16.47;100.00;100370.09;4968388;28;20197;-76
2023/09/02 00:41:39;;;;;;;1.30;1.00;;;;;;;16.45;100.00;100369.31;4967854;28;20248;-75
2023/09/02 00:44:05;;;;;;;1.50;1.30;;;;;;;16.45;100.00;100366.69;4964731;28;20229;-77
2023/09/02 00:46:31;;;;;;;1.30;1.00;;;;;;;16.43;100.00;100369.31;4963816;28;20194;-77
2023/09/02 00:48:56;;;;;;;2.40;1.20;;;;;;;16.44;100.00;100371.03;4966354;28;20214;-76
2023/09/02 00:51:21;;;;;;;1.20;1.10;;;;;;;16.44;100.00;100372.81;4968093;28;20198;-76
2023/09/02 00:53:47;;;;;;;2.90;1.30;;;;;;;16.46;100.00;100368.41;4973087;28;20235;-76
2023/09/02 00:56:14;;;;;;;1.60;1.50;;;;;;;16.48;100.00;100365.72;4969761;28;20280;-76
2023/09/02 00:58:40;;;;;;;2.07;1.47;;;;;;;16.50;100.00;100372.59;4961448;28;20667;-77
2023/09/02 01:01:06;;;;;;;2.50;1.43;;;;;;;16.52;100.00;100372.56;4966196;28;20238;-76
2023/09/02 01:03:33;;;;;;;1.23;1.13;;;;;;;16.53;100.00;100374.28;4973862;28;20655;-77
2023/09/02 01:05:58;;;;;;;1.57;1.30;;;;;;;16.55;100.00;100383.75;4969812;28;20198;-76
2023/09/02 01:08:26;;;;;;;2.07;1.37;;;;;;;16.55;100.00;100372.47;4971503;28;20200;-76
2023/09/02 01:10:52;;;;;;;2.20;1.20;;;;;;;16.54;100.00;100379.44;4968973;28;20278;-76
2023/09/02 01:13:17;;;;;;;1.43;1.17;;;;;;;16.52;100.00;100373.41;4970421;28;20274;-76
2023/09/02 01:15:42;;;;;;;1.27;1.07;;;;;;;16.52;100.00;100373.41;4967871;28;20194;-76
2023/09/02 01:18:07;;;;;;;1.30;1.10;;;;;;;16.49;100.00;100378.72;4969586;28;20267;-76
2023/09/02 01:20:53;;;;;;;1.77;1.20;;;;;;;16.46;100.00;100379.69;4960443;28;20215;-77
2023/09/02 01:23:52;;;;;;;2.30;1.53;;;;;;;16.43;100.00;100384.16;4965891;28;20198;-76
2023/09/02 01:26:50;;;;;;;2.17;1.43;;;;;;;16.40;100.00;100389.47;4969859;28;20193;-76
2023/09/02 01:29:20;;;;;;;1.23;1.13;;;;;;;16.37;100.00;100385.22;4965758;28;20232;-76
2023/09/02 01:31:47;;;;;;;1.90;1.37;;;;;;;16.36;100.00;100390.47;4960452;28;20197;-75
2023/09/02 01:34:15;;;;;;;2.23;1.30;;;;;;;16.34;100.00;100395.75;4963340;28;20588;-75
2023/09/02 01:36:41;;;;;;;2.10;1.53;;;;;;;16.33;100.00;100396.66;4970668;28;20224;-75
2023/09/02 01:39:09;;;;;;;2.47;1.43;;;;;;;16.30;100.00;100394.13;4969357;28;20257;-75
2023/09/02 01:41:35;;;;;;;1.60;1.23;;;;;;;16.27;100.00;100389.00;4966354;28;20191;-76
2023/09/02 01:44:02;;;;;;;3.20;1.33;;;;;;;16.25;100.00;100386.44;4969960;28;21202;-77
2023/09/02 01:46:27;;;;;;;3.30;1.30;;;;;;;16.24;100.00;100387.34;4967313;28;20201;-75
2023/09/02 01:48:53;;;;;;;2.07;1.20;;;;;;;16.22;100.00;100388.31;4965850;28;20213;-76
2023/09/02 01:51:19;;;;;;;1.63;1.20;;;;;;;16.21;100.00;100392.66;4959190;28;20200;-76
2023/09/02 01:53:45;;;;;;;3.00;1.60;;;;;;;16.21;100.00;100399.66;4960851;28;20236;-76
2023/09/02 01:56:11;;;;;;;1.40;1.30;;;;;;;16.18;100.00;100408.44;4966491;28;20229;-77
2023/09/02 01:58:36;;;;;;;1.40;1.30;;;;;;;16.17;100.00;100398.03;4969649;28;20227;-78
2023/09/02 02:01:02;;;;;;;2.17;1.17;;;;;;;16.14;100.00;100393.75;4965576;28;20244;-78
2023/09/02 02:03:30;;;;;;;1.03;1.00;;;;;;;16.11;100.00;100397.28;4968545;28;20204;-76
2023/09/02 02:05:58;;;;;;;1.10;1.00;;;;;;;16.10;100.00;100390.41;4966427;28;20194;-76
2023/09/02 02:08:39;;;;;;;1.33;1.17;;;;;;;16.09;100.00;100395.66;4970432;28;20201;-78
2023/09/02 02:11:06;;;;;;;2.00;1.00;;;;;;;16.07;100.00;100395.69;4964559;28;20206;-77
2023/09/02 02:13:31;;;;;;;1.40;1.10;;;;;;;16.05;100.00;100388.78;4972493;28;20331;-77
2023/09/02 02:15:56;;;;;;;0.80;0.80;;;;;;;16.02;100.00;100392.38;4969174;28;20268;-77
2023/09/02 02:18:22;;;;;;;1.80;1.00;;;;;;;16.00;100.00;100400.25;4968624;28;20273;-76
2023/09/02 02:20:55;;;;;;;1.53;1.40;;;;;;;15.98;100.00;100402.06;4963940;28;20202;-76
2023/09/02 02:23:20;;;;;;;3.30;1.30;;;;;;;15.95;100.00;100406.50;4970627;28;20686;-77
2023/09/02 02:25:46;;;;;;;2.17;1.40;;;;;;;15.90;100.00;100411.84;4969009;28;20344;-77
2023/09/02 02:28:11;;;;;;;1.60;1.20;;;;;;;15.87;100.00;100409.34;4971031;28;20185;-77
2023/09/02 02:30:36;;;;;;;3.10;1.60;;;;;;;15.82;100.00;100404.22;4967081;28;20209;-77
2023/09/02 02:33:02;;;;;;;1.73;1.17;;;;;;;15.78;100.00;100404.34;4968654;28;20189;-77
2023/09/02 02:35:31;;;;;;;2.73;1.40;;;;;;;15.74;100.00;100407.94;4979743;28;20183;-77
2023/09/02 02:37:59;;;;;;;1.40;1.30;;;;;;;15.69;100.00;100405.47;4967179;28;20235;-76
2023/09/02 02:40:24;;;;;;;1.70;1.37;;;;;;;15.63;100.00;100401.28;4964669;28;21177;-77
2023/09/02 02:42:49;;;;;;;1.27;1.10;;;;;;;15.60;100.00;100401.34;4967688;28;20252;-77
2023/09/02 02:45:15;;;;;;;2.17;1.20;;;;;;;15.57;100.00;100405.81;4965460;28;20192;-77
2023/09/02 02:47:41;;;;;;;1.83;1.20;;;;;;;15.57;100.00;100408.41;4968395;28;20243;-76
2023/09/02 02:50:06;;;;;;;1.90;1.47;;;;;;;15.53;100.00;100411.09;4967233;28;20233;-77
2023/09/02 02:52:31;;;;;;;2.30;1.00;;;;;;;15.53;100.00;100408.50;4968014;28;20186;-76
2023/09/02 02:54:57;;;;;;;1.10;1.00;;;;;;;15.53;100.00;100413.72;4965071;28;20277;-77
2023/09/02 02:57:22;;;;;;;1.80;1.20;;;;;;;15.53;100.00;100410.25;4968816;28;20196;-77
2023/09/02 02:59:50;;;;;;;1.87;1.10;;;;;;;15.53;100.00;100410.25;4965088;28;20205;-77
2023/09/02 03:02:16;;;;;;;1.77;1.00;;;;;;;15.52;100.00;100413.78;4972379;28;20668;-77
2023/09/02 03:04:46;;;;;;;1.57;1.37;;;;;;;15.50;100.00;100419.00;4966208;28;20264;-78
2023/09/02 03:07:12;;;;;;;1.50;1.10;;;;;;;15.49;100.00;100414.72;4971639;28;20198;-77
2023/09/02 03:09:37;;;;;;;1.33;1.23;;;;;;;15.47;100.00;100421.72;4967922;28;20225;-77
2023/09/02 03:12:03;;;;;;;1.00;1.00;;;;;;;15.45;100.00;100418.31;4961779;28;20207;-77
2023/09/02 03:14:28;;;;;;;2.33;1.17;;;;;;;15.44;100.00;100428.75;4952519;28;20555;-76
2023/09/02 03:16:53;;;;;;;2.00;1.20;;;;;;;15.42;100.00;100434.03;4962545;28;20190;-76
2023/09/02 03:19:19;;;;;;;1.20;0.97;;;;;;;15.39;100.00;100429.75;4959908;28;20205;-77
2023/09/02 03:21:44;;;;;;;2.50;1.17;;;;;;;15.38;100.00;100432.38;4958479;28;20198;-77
2023/09/02 03:24:10;;;;;;;1.53;1.20;;;;;;;15.36;100.00;100436.78;4965977;28;20202;-78
2023/09/02 03:26:35;;;;;;;2.30;0.93;;;;;;;15.31;100.00;100438.69;4966500;28;20289;-77
2023/09/02 03:29:00;;;;;;;2.33;1.50;;;;;;;15.28;100.00;100436.97;4960531;28;20250;-77
2023/09/02 03:31:25;;;;;;;1.73;1.40;;;;;;;15.26;100.00;100438.81;4956213;28;20198;-76
2023/09/02 03:33:51;;;;;;;1.77;1.10;;;;;;;15.22;100.00;100438.00;4964329;28;20193;-76
2023/09/02 03:36:17;;;;;;;1.80;1.40;;;;;;;15.21;100.00;100433.69;4966538;28;20197;-78
2023/09/02 03:38:42;;;;;;;1.70;1.50;;;;;;;15.20;100.00;100436.34;4967634;28;22575;-77
2023/09/02 03:41:12;;;;;;;1.57;1.23;;;;;;;15.18;100.00;100436.38;4963772;28;20218;-77
2023/09/02 03:43:37;;;;;;;1.83;1.47;;;;;;;15.17;100.00;100439.88;4968560;28;20198;-76
2023/09/02 03:46:03;;;;;;;2.90;1.30;;;;;;;15.15;100.00;100426.03;4968636;28;20795;-77
2023/09/02 03:48:28;;;;;;;1.30;1.20;;;;;;;15.14;100.00;100434.75;4964670;28;20190;-78
2023/09/02 03:51:05;;;;;;;2.10;1.40;;;;;;;15.13;100.00;100427.81;4964583;28;20216;-78
2023/09/02 03:53:31;;;;;;;1.63;1.40;;;;;;;15.13;100.00;100430.44;4967442;28;20207;-78
2023/09/02 03:55:57;;;;;;;1.90;1.30;;;;;;;15.13;100.00;100427.81;4963972;28;20938;-78
2023/09/02 03:58:23;;;;;;;1.63;1.53;;;;;;;15.13;100.00;100430.44;4965175;28;20281;-76
2023/09/02 04:00:48;;;;;;;2.27;1.33;;;;;;;15.12;100.00;100428.72;4965066;28;20228;-77
2023/09/02 04:03:15;;;;;;;1.83;1.27;;;;;;;15.11;100.00;100432.22;4985141;28;20229;-77
2023/09/02 04:05:41;;;;;;;1.60;1.50;;;;;;;15.08;100.00;100437.50;4970851;28;20213;-77
2023/09/02 04:08:06;;;;;;;2.27;1.87;;;;;;;15.05;100.00;100440.22;4970205;28;20295;-76
2023/09/02 04:10:31;;;;;;;1.50;1.40;;;;;;;15.06;100.00;100444.50;4966564;28;20284;-76
2023/09/02 04:12:56;;;;;;;2.37;1.90;;;;;;;15.05;100.00;100438.44;4968257;28;20202;-76
2023/09/02 04:15:22;;;;;;;1.80;1.70;;;;;;;15.06;100.00;100447.09;4965117;28;20201;-75
2023/09/02 04:17:47;;;;;;;1.77;1.53;;;;;;;15.05;100.00;100440.22;4970022;28;20265;-77
2023/09/02 04:20:12;;;;;;;2.23;1.47;;;;;;;15.07;100.00;100438.38;4964726;28;20224;-78
2023/09/02 04:22:38;;;;;;;2.50;1.40;;;;;;;15.07;100.00;100434.06;4962908;28;20543;-76
2023/09/02 04:25:03;;;;;;;1.37;1.27;;;;;;;15.07;100.00;100439.25;4965885;28;20204;-77
2023/09/02 04:27:29;;;;;;;1.50;1.40;;;;;;;15.09;100.00;100439.22;4967666;28;20197;-77
2023/09/02 04:29:54;;;;;;;1.97;1.50;;;;;;;15.11;100.00;100437.44;4965603;28;20236;-77
2023/09/02 04:32:19;;;;;;;1.60;1.50;;;;;;;15.13;100.00;100435.66;4965963;28;20199;-77
2023/09/02 04:34:46;;;;;;;2.37;1.47;;;;;;;15.16;100.00;100443.41;4962955;28;20650;-77
2023/09/02 04:37:11;;;;;;;4.60;1.83;;;;;;;15.17;100.00;100439.03;4964540;28;20202;-77
2023/09/02 04:39:40;;;;;;;1.70;1.60;;;;;;;15.18;100.00;100441.59;4966125;28;20217;-76
2023/09/02 04:42:05;;;;;;;1.67;1.57;;;;;;;15.16;100.00;100447.72;4962457;28;20230;-76
2023/09/02 04:44:31;;;;;;;1.50;1.40;;;;;;;15.13;100.00;100445.19;4981251;28;20223;-77
2023/09/02 04:46:56;;;;;;;1.30;1.20;;;;;;;15.10;100.00;100446.13;4964388;28;20204;-77
2023/09/02 04:49:22;;;;;;;2.03;1.50;;;;;;;15.10;100.00;100446.13;4964326;28;20222;-77
2023/09/02 04:51:48;;;;;;;1.23;1.13;;;;;;;15.11;100.00;100447.84;4959000;28;20200;-77
2023/09/02 04:54:14;;;;;;;1.40;1.27;;;;;;;15.08;100.00;100438.38;4962525;28;20196;-77
2023/09/02 04:56:39;;;;;;;1.43;1.30;;;;;;;15.08;100.00;100440.09;4960386;28;20558;-77
2023/09/02 04:59:05;;;;;;;1.40;1.20;;;;;;;15.11;100.00;100444.41;4967700;28;20193;-77
2023/09/02 05:01:30;;;;;;;1.30;1.20;;;;;;;15.14;100.00;100452.13;4958208;28;20209;-78
2023/09/02 05:03:55;;;;;;;1.87;1.30;;;;;;;15.17;100.00;100446.84;4965616;28;20194;-77
2023/09/02 05:06:21;;;;;;;1.20;1.00;;;;;;;15.20;100.00;100447.59;4960951;28;20189;-77
2023/09/02 05:08:46;;;;;;;1.90;1.40;;;;;;;15.24;100.00;100449.25;4979337;28;20706;-77
2023/09/02 05:11:11;;;;;;;1.50;1.23;;;;;;;15.31;100.00;100459.53;4963002;28;20220;-76
2023/09/02 05:13:37;;;;;;;1.47;1.10;;;;;;;15.35;100.00;100448.97;4985069;28;21276;-76
2023/09/02 05:16:02;;;;;;;1.20;1.10;;;;;;;15.39;100.00;100448.00;4970861;28;20208;-76
2023/09/02 05:18:27;;;;;;;5.03;1.70;;;;;;;15.46;100.00;100450.44;4962297;28;20194;-76
2023/09/02 05:20:56;;;;;;;1.70;1.20;;;;;;;15.52;100.00;100456.34;4964773;28;20583;-76
2023/09/02 05:23:22;;;;;;;1.43;1.33;;;;;;;15.58;100.00;100452.72;4967896;28;20650;-76
2023/09/02 05:25:53;;;;;;;3.67;1.40;;;;;;;15.63;100.00;100458.66;4962358;28;20195;-76
2023/09/02 05:28:18;;;;;;;3.57;1.63;;;;;;;15.69;100.00;100455.91;4962185;28;20193;-77
2023/09/02 05:30:45;;;;;;;1.50;1.40;;;;;;;15.74;100.00;100470.56;4965488;28;20218;-76
2023/09/02 05:33:10;;;;;;;2.43;1.53;;;;;;;15.80;100.00;100465.19;4961492;28;20248;-77
2023/09/02 05:35:35;;;;;;;2.70;1.30;;;;;;;15.90;100.00;100465.81;4968939;28;20206;-77
2023/09/02 05:38:03;;;;;;;2.37;1.20;;;;;;;15.96;100.00;100463.88;4964238;28;20201;-78
2023/09/02 05:40:28;;;;;;;1.93;1.40;;;;;;;16.04;100.00;100463.66;4965613;28;20216;-78
2023/09/02 05:42:54;;;;;;;1.83;1.30;;;;;;;16.12;100.00;100466.88;4965221;28;20194;-79
2023/09/02 05:45:19;;;;;;;1.20;1.10;;;;;;;16.19;100.00;100462.34;4967693;28;20590;-78
2023/09/02 05:47:44;;;;;;;5.33;1.53;;;;;;;16.30;100.00;100475.09;4967045;28;20268;-78
2023/09/02 05:50:10;;;;;;;1.43;1.30;;;;;;;16.41;100.00;100474.78;4985738;28;20214;-77
2023/09/02 05:52:35;;;;;;;3.57;1.00;;;;;;;16.53;100.00;100474.38;4968243;28;20801;-77
2023/09/02 05:55:00;;;;;;;2.13;1.33;;;;;;;16.66;100.00;100482.72;4965530;28;20284;-76
2023/09/02 05:57:25;;;;;;;2.00;1.40;;;;;;;16.78;100.00;100481.47;4964530;28;20188;-78
2023/09/02 05:59:51;;;;;;;1.47;1.37;;;;;;;16.89;100.00;100482.00;4961339;28;20212;-76
2023/09/02 06:02:16;;;;;;;1.60;1.40;;;;;;;16.97;100.00;100473.94;4957737;28;20657;-77
2023/09/02 06:04:41;;;;;;;1.30;1.20;;;;;;;17.04;100.00;100478.03;4973126;28;20235;-77
2023/09/02 06:07:07;;;;;;;1.20;1.00;;;;;;;17.13;100.00;100484.72;4965349;28;20731;-77
2023/09/02 06:09:32;;;;;;;1.83;1.50;;;;;;;17.23;100.00;100487.06;4982732;28;20228;-78
2023/09/02 06:11:57;;;;;;;2.53;1.57;;;;;;;17.28;100.00;100475.53;4967747;28;20197;-77
2023/09/02 06:14:22;;;;;;;1.70;1.53;;;;;;;17.32;100.00;100482.34;4974057;28;20744;-78
2023/09/02 06:16:50;;;;;;;1.60;1.50;;;;;;;17.39;100.00;100482.13;4983968;28;20198;-78
2023/09/02 06:19:15;;;;;;;1.83;1.40;;;;;;;17.47;100.00;100487.97;4960924;28;20280;-77
2023/09/02 06:21:40;;;;;;;1.97;1.50;;;;;;;17.67;100.00;100484.66;4968593;28;20195;-77
2023/09/02 06:24:06;;;;;;;2.27;1.70;;;;;;;18.01;100.00;100491.31;4961646;28;20193;-78
2023/09/02 06:26:31;;;;;;;2.80;2.13;;;;;;;18.32;100.00;100490.16;4983551;28;20190;-79
2023/09/02 06:28:57;;;;;;;1.73;1.20;;;;;;;18.65;100.00;100496.78;4970053;28;20718;-78
2023/09/02 06:31:22;;;;;;;1.30;1.17;;;;;;;18.98;100.00;100497.22;4970345;28;20288;-78
2023/09/02 06:33:48;;;;;;;2.17;1.97;;;;;;;19.30;100.00;100499.44;4970266;28;20298;-77
2023/09/02 06:36:16;;;;;;;2.67;1.77;;;;;;;19.72;100.00;100510.78;4971106;28;20205;-78
2023/09/02 06:38:42;;;;;;;4.03;1.67;;;;;;;20.06;100.00;100507.53;4969655;28;20205;-78
2023/09/02 06:41:16;;;;;;;3.40;2.00;;;;;;;19.78;100.00;100514.00;4967071;28;20218;-78
2023/09/02 06:43:42;;;;;;;2.97;2.00;;;;;;;20.09;100.00;100515.28;4967526;28;20748;-77
2023/09/02 06:46:15;;;;;;;4.47;1.97;;;;;;;20.36;100.00;100522.81;4965390;28;20198;-78
2023/09/02 06:48:41;;;;;;;1.60;1.50;;;;;;;20.87;100.00;100517.00;4961941;28;20202;-78
2023/09/02 06:51:06;;;;;;;1.73;1.40;;;;;;;21.31;100.00;100516.56;4962099;28;20753;-79
2023/09/02 06:53:31;;;;;;;1.57;1.27;;;;;;;21.68;100.00;100523.56;4961817;28;20333;-77
2023/09/02 06:55:57;;;;;;;2.00;1.23;;;;;;;21.84;100.00;100529.75;4966447;28;20244;-78
2023/09/02 06:58:22;;;;;;;1.83;1.40;;;;;;;22.01;100.00;100528.84;4961130;28;20267;-79
2023/09/02 07:00:48;;;;;;;1.77;1.50;;;;;;;22.45;100.00;100532.69;4967154;28;20198;-77
2023/09/02 07:03:14;;;;;;;2.17;1.37;;;;;;;22.80;100.00;100534.28;4968064;28;20198;-77
2023/09/02 07:05:39;;;;;;;1.10;1.00;;;;;;;23.04;100.00;100537.31;4963701;28;20198;-76
2023/09/02 07:08:05;;;;;;;2.15;1.15;;;;;;;23.21;100.00;100541.63;4984178;28;20181;-78
2023/09/02 07:10:30;;;;;;;2.20;1.40;;;;;;;23.37;100.00;100548.66;4960371;28;20289;-77
2023/09/02 07:12:55;;;;;;;1.42;1.27;;;;;;;23.12;99.49;100540.34;4961331;28;20711;-77
2023/09/02 07:15:20;;;;;;;1.60;1.10;;;;;;;23.12;99.25;100540.34;4963831;28;20193;-79
2023/09/02 07:17:46;;;;;;;2.43;1.27;;;;;;;23.19;99.55;100553.19;4968180;28;20190;-79
2023/09/02 07:20:12;;;;;;;1.93;1.30;;;;;;;22.89;100.00;100552.22;4957230;28;20700;-77
2023/09/02 07:22:38;;;;;;;3.23;1.20;;;;;;;23.20;99.79;100547.84;4960701;28;20186;-79
2023/09/02 07:25:06;;;;;;;1.23;1.00;;;;;;;23.38;98.63;100553.00;4966046;28;20197;-79
2023/09/02 07:27:34;;;;;;;2.10;1.40;;;;;;;23.40;99.17;100546.69;4967064;28;20256;-77
2023/09/02 07:30:00;;;;;;;2.77;1.30;;;;;;;23.55;98.93;100544.06;4962586;28;20281;-77
2023/09/02 07:32:25;;;;;;;3.33;1.30;;;;;;;23.51;99.37;100539.94;4962302;28;20202;-78
2023/09/02 07:34:51;;;;;;;1.40;1.30;;;;;;;23.53;99.36;100557.38;4980170;28;20193;-79
2023/09/02 07:37:16;;;;;;;1.53;1.30;;;;;;;23.46;100.00;100558.69;4965341;28;20185;-79
2023/09/02 07:39:41;;;;;;;1.30;1.20;;;;;;;23.48;100.00;100563.88;4962594;28;20215;-78
2023/09/02 07:42:07;;;;;;;1.70;1.37;;;;;;;23.51;99.89;100569.00;4975475;28;20201;-79
2023/09/02 07:44:32;;;;;;;1.47;1.30;;;;;;;23.55;100.00;100559.94;4987318;28;20200;-80
2023/09/02 07:46:58;;;;;;;3.63;1.67;;;;;;;23.64;100.00;100563.81;4972864;28;20197;-79
2023/09/02 07:49:23;;;;;;;1.50;1.23;;;;;;;23.65;99.99;100565.50;4959014;28;20697;-77
2023/09/02 07:51:49;;;;;;;1.83;1.33;;;;;;;23.57;100.00;100566.84;4964169;28;20200;-77
2023/09/02 07:54:14;;;;;;;1.77;1.53;;;;;;;23.38;99.92;100571.50;4963142;28;20193;-77
2023/09/02 07:56:40;;;;;;;1.80;1.20;;;;;;;23.38;98.71;100566.22;4965319;28;20193;-77
2023/09/02 07:59:06;;;;;;;1.97;1.50;;;;;;;23.24;98.91;100580.19;4966629;28;20673;-77
2023/09/02 08:01:32;;;;;;;1.60;1.50;;;;;;;23.20;100.00;100573.38;4961662;28;20232;-77
2023/09/02 08:03:57;;;;;;;2.30;1.83;;;;;;;23.34;100.00;100575.25;4961036;28;20197;-78
2023/09/02 08:06:23;;;;;;;2.27;2.03;;;;;;;23.42;99.70;100571.22;4961614;28;20192;-78
2023/09/02 08:08:48;;;;;;;3.43;1.50;;;;;;;23.53;100.00;100570.59;4960460;28;20570;-77
2023/09/02 08:11:17;;;;;;;2.80;1.67;;;;;;;23.53;99.68;100575.00;4957617;28;20222;-77
2023/09/02 08:13:43;;;;;;;1.60;1.47;;;;;;;23.36;100.00;100568.97;4959488;28;20205;-77
2023/09/02 08:16:08;;;;;;;1.83;1.50;;;;;;;23.23;100.00;100567.94;4957630;28;21042;-77
2023/09/02 08:18:34;;;;;;;3.10;1.40;;;;;;;23.20;100.00;100568.97;4960976;28;20237;-77
2023/09/02 08:20:59;;;;;;;2.87;1.70;;;;;;;23.06;100.00;100577.66;4961574;28;20209;-78
2023/09/02 08:23:25;;;;;;;2.23;1.60;;;;;;;22.81;100.00;100572.91;4965790;28;20194;-77
2023/09/02 08:25:50;;;;;;;2.63;1.53;;;;;;;22.83;100.00;100571.88;4967168;28;20196;-76
2023/09/02 08:28:15;;;;;;;1.37;1.27;;;;;;;22.86;100.00;100573.50;4965344;28;20185;-76
2023/09/02 08:30:42;;;;;;;2.03;1.67;;;;;;;22.88;100.00;100570.78;4960382;28;20586;-77
2023/09/02 08:33:07;;;;;;;1.87;1.77;;;;;;;22.87;100.00;100566.44;4965699;28;20194;-78
2023/09/02 08:35:37;;;;;;;1.50;1.40;;;;;;;22.86;100.00;100568.22;4964085;28;20194;-77
2023/09/02 08:38:05;;;;;;;2.10;1.60;;;;;;;22.80;100.00;100573.84;4963506;28;20304;-78
2023/09/02 08:40:31;;;;;;;2.90;1.80;;;;;;;22.50;100.00;100580.72;4966159;28;20198;-78
2023/09/02 08:42:56;;;;;;;2.63;1.60;;;;;;;22.43;100.00;100582.00;4968085;28;20192;-78
2023/09/02 08:45:24;;;;;;;2.57;1.70;;;;;;;22.51;100.00;100573.69;4966198;28;20268;-77
2023/09/02 08:47:58;;;;;;;2.53;1.80;;;;;;;22.50;100.00;100585.16;4963813;28;20185;-78
2023/09/02 08:50:26;;;;;;;2.10;1.80;;;;;;;22.59;100.00;100579.38;4960907;28;20316;-77
2023/09/02 08:52:52;;;;;;;3.30;1.70;;;;;;;22.64;100.00;100581.75;4963788;28;20190;-78
2023/09/02 08:55:18;;;;;;;3.83;2.20;;;;;;;22.56;100.00;100587.44;4957732;28;20209;-78
2023/09/02 08:57:44;;;;;;;3.20;2.10;;;;;;;22.78;100.00;100586.28;4966795;28;20188;-78
2023/09/02 09:00:10;;;;;;;3.73;1.97;;;;;;;22.76;100.00;100582.88;4965709;28;20240;-77
2023/09/02 09:02:40;;;;;;;2.37;2.17;;;;;;;22.77;100.00;100585.41;4964113;28;20205;-78
2023/09/02 09:05:07;;;;;;;3.27;2.00;;;;;;;22.48;100.00;100587.88;4970031;28;20193;-78
2023/09/02 09:07:34;;;;;;;3.20;1.90;;;;;;;22.54;100.00;100586.66;4969316;28;20186;-78
2023/09/02 09:10:00;;;;;;;2.67;2.40;;;;;;;22.39;100.00;100581.25;4964631;28;20222;-77
2023/09/02 09:12:28;;;;;;;2.97;2.10;;;;;;;22.53;100.00;100582.38;4967526;28;20721;-78
2023/09/02 09:14:54;;;;;;;2.53;2.20;;;;;;;22.64;100.00;100587.03;4968113;28;20818;-78
2023/09/02 09:17:20;;;;;;;2.33;1.97;;;;;;;22.74;100.00;100587.38;4968110;28;20182;-77
2023/09/02 09:19:46;;;;;;;2.23;1.83;;;;;;;22.86;100.00;100583.22;4983967;28;20198;-77
2023/09/02 09:22:11;;;;;;;1.70;1.60;;;;;;;23.01;100.00;100582.34;4968397;28;20201;-77
2023/09/02 09:24:36;;;;;;;2.57;2.20;;;;;;;23.04;100.00;100581.31;4968077;28;20250;-77
2023/09/02 09:27:05;;;;;;;2.30;1.80;;;;;;;23.07;100.00;100586.44;4965777;28;20182;-76
2023/09/02 09:29:39;;;;;;;2.70;2.17;;;;;;;23.24;100.00;100581.06;4966409;28;20210;-78
2023/09/02 09:32:08;;;;;;;1.63;1.50;;;;;;;23.28;100.00;100587.00;4984391;28;20184;-78
2023/09/02 09:34:39;;;;;;;2.60;1.90;;;;;;;23.38;100.00;100582.06;4961757;28;20626;-78
2023/09/02 09:37:05;;;;;;;2.00;1.80;;;;;;;23.41;100.00;100577.44;4959827;28;20231;-79
2023/09/02 09:39:48;;;;;;;4.70;2.40;;;;;;;23.56;100.00;100575.69;4957772;28;20272;-77
2023/09/02 09:42:15;;;;;;;2.23;1.87;;;;;;;23.56;100.00;100575.69;4982623;28;20221;-79
2023/09/02 09:44:57;;;;;;;2.80;1.80;;;;;;;23.62;100.00;100573.63;4978719;28;20229;-77
2023/09/02 09:47:24;;;;;;;2.43;1.60;;;;;;;23.73;100.00;100581.78;4968207;28;20186;-77
2023/09/02 09:49:50;;;;;;;2.30;2.10;;;;;;;23.80;100.00;100569.88;4963843;28;20304;-77
2023/09/02 09:52:18;;;;;;;2.50;2.00;;;;;;;23.85;100.00;100575.75;4961017;28;20276;-77
2023/09/02 09:54:48;;;;;;;2.50;2.03;;;;;;;23.92;100.00;100575.34;4968622;28;20209;-77
2023/09/02 09:57:35;;;;;;;2.23;1.97;;;;;;;24.00;100.00;100568.69;4965716;28;20495;-76
2023/09/02 10:00:01;;;;;;;2.20;2.00;;;;;;;24.01;100.00;100577.50;4968345;28;20232;-78
2023/09/02 10:02:26;;;;;;;2.80;1.80;;;;;;;23.86;100.00;100580.09;4965746;28;20283;-78
2023/09/02 10:04:53;;;;;;;2.77;1.90;;;;;;;24.04;100.00;100579.97;4977562;28;20194;-78
2023/09/02 10:07:23;;;;;;;2.60;2.20;;;;;;;23.72;100.00;100577.44;4982438;28;20194;-78
2023/09/02 10:09:49;;;;;;;2.70;2.07;;;;;;;23.73;100.00;100584.41;4959979;28;20222;-77
2023/09/02 10:12:15;;;;;;;3.33;2.40;;;;;;;23.91;100.00;100585.09;4964772;28;20297;-77
2023/09/02 10:14:44;;;;;;;1.87;1.60;;;;;;;24.00;100.00;100574.00;4972536;28;20182;-77
2023/09/02 10:17:10;;;;;;;1.70;1.60;;;;;;;24.14;100.00;100580.22;4959307;28;20240;-78
2023/09/02 10:19:36;;;;;;;2.77;2.00;;;;;;;24.19;100.00;100581.66;4966175;28;20206;-77
2023/09/02 10:22:03;;;;;;;2.30;1.90;;;;;;;24.17;100.00;100583.56;4967947;28;20193;-78
2023/09/02 10:24:55;;;;;;;2.43;1.70;;;;;;;24.02;100.00;100581.84;4971283;28;20260;-78
2023/09/02 10:27:23;;;;;;;1.77;1.57;;;;;;;24.26;100.00;100582.13;4953706;28;20218;-78
2023/09/02 10:29:57;;;;;;;1.70;1.60;;;;;;;24.27;100.00;100581.19;4964267;28;20217;-77
2023/09/02 10:32:37;;;;;;;1.90;1.77;;;;;;;24.10;99.02;100576.09;4965606;28;20190;-79
2023/09/02 10:35:11;;;;;;;2.40;1.70;;;;;;;24.25;99.14;100579.56;4987617;28;20193;-78
2023/09/02 10:37:57;;;;;;;1.93;1.70;;;;;;;24.36;98.70;100577.09;4963305;28;20213;-78
2023/09/02 10:40:24;;;;;;;1.90;1.70;;;;;;;24.51;97.39;100573.47;4960268;28;20211;-78
2023/09/02 10:42:50;;;;;;;2.00;1.63;;;;;;;24.60;97.24;100574.69;4957967;28;20603;-78
2023/09/02 10:45:19;;;;;;;2.73;1.90;;;;;;;24.76;97.25;100569.31;4966507;28;20197;-78
2023/09/02 10:47:45;;;;;;;2.30;1.87;;;;;;;24.71;94.72;100568.75;4966204;28;20662;-78
2023/09/02 10:50:12;;;;;;;2.37;1.30;;;;;;;24.61;91.88;100564.97;4965356;28;20214;-78
2023/09/02 10:52:38;;;;;;;1.90;1.80;;;;;;;24.38;93.55;100554.03;4962888;28;20193;-77
2023/09/02 10:55:05;;;;;;;1.80;1.70;;;;;;;24.59;94.47;100548.34;4967677;28;20267;-79
2023/09/02 10:57:31;;;;;;;1.60;1.50;;;;;;;24.84;94.82;100554.72;4964818;28;20186;-77
2023/09/02 11:00:12;;;;;;;1.90;1.70;;;;;;;25.01;94.96;100551.00;4964918;28;20269;-77
2023/09/02 11:02:39;;;;;;;2.10;1.87;;;;;;;25.07;95.57;100553.22;4959974;28;20634;-77
2023/09/02 11:05:05;;;;;;;1.60;1.50;;;;;;;25.17;95.26;100550.81;4961608;28;21183;-77
2023/09/02 11:07:32;;;;;;;2.67;1.80;;;;;;;25.27;95.51;100550.13;4959825;28;20192;-78
2023/09/02 11:09:58;;;;;;;1.60;1.47;;;;;;;25.31;95.58;100548.09;4960402;28;20729;-77
2023/09/02 11:12:25;;;;;;;1.73;1.50;;;;;;;25.41;94.61;100540.38;4965820;28;20181;-77
2023/09/02 11:15:09;;;;;;;1.60;1.50;;;;;;;25.48;92.46;100543.50;4960635;28;20184;-78
2023/09/02 11:17:35;;;;;;;2.00;1.80;;;;;;;25.37;92.98;100544.19;4959643;28;20281;-77